createdAt,value
2022-08-28T00:00:29.553Z,20.03
2022-08-28T00:02:56.788Z,19.98
2022-08-28T00:05:26.347Z,20.00
2022-08-28T00:07:53.082Z,20.03
2022-08-28T00:10:22.609Z,20.10
2022-08-28T00:12:50.482Z,20.03
2022-08-28T00:15:22.006Z,20.01
2022-08-28T00:17:49.022Z,19.99
2022-08-28T00:20:18.562Z,20.03
2022-08-28T00:22:45.393Z,20.02
2022-08-28T00:25:13.503Z,20.03
2022-08-28T00:27:55.599Z,20.04
2022-08-28T00:30:29.844Z,20.00
2022-08-28T00:32:59.851Z,20.00
2022-08-28T00:35:27.635Z,20.08
2022-08-28T00:37:57.488Z,20.02
2022-08-28T00:40:28.859Z,20.03
2022-08-28T00:43:00.267Z,19.96
2022-08-28T00:45:27.548Z,19.94
2022-08-28T00:47:54.280Z,19.89
2022-08-28T00:50:25.492Z,19.95
2022-08-28T00:52:57.749Z,19.92
2022-08-28T00:55:26.519Z,19.89
2022-08-28T00:57:56.480Z,19.94
2022-08-28T01:00:35.107Z,19.72
2022-08-28T01:03:02.964Z,19.82
2022-08-28T01:05:29.821Z,19.80
2022-08-28T01:07:58.697Z,19.82
2022-08-28T01:10:27.125Z,19.86
2022-08-28T01:12:56.222Z,19.81
2022-08-28T01:15:28.335Z,19.82
2022-08-28T01:18:05.934Z,19.80
2022-08-28T01:20:37.734Z,19.74
2022-08-28T01:23:25.024Z,19.72
2022-08-28T01:25:52.486Z,19.75
2022-08-28T01:28:19.027Z,19.72
2022-08-28T01:30:47.759Z,19.75
2022-08-28T01:33:17.504Z,19.67
2022-08-28T01:35:47.469Z,19.75
2022-08-28T01:38:21.458Z,19.46
2022-08-28T01:40:54.546Z,19.58
2022-08-28T01:43:24.365Z,19.38
2022-08-28T01:45:54.248Z,19.46
2022-08-28T01:48:23.291Z,19.29
2022-08-28T01:50:50.727Z,19.33
2022-08-28T01:53:20.366Z,19.39
2022-08-28T01:55:53.156Z,19.41
2022-08-28T01:58:19.658Z,19.35
2022-08-28T02:00:46.319Z,19.32
2022-08-28T02:03:12.847Z,19.31
2022-08-28T02:05:40.041Z,19.16
2022-08-28T02:08:07.798Z,19.11
2022-08-28T02:10:37.283Z,19.09
2022-08-28T02:13:04.806Z,19.06
2022-08-28T02:15:32.863Z,18.93
2022-08-28T02:18:00.123Z,18.91
2022-08-28T02:20:28.607Z,18.94
2022-08-28T02:22:57.907Z,18.87
2022-08-28T02:25:25.469Z,18.90
2022-08-28T02:27:51.916Z,18.87
2022-08-28T02:30:18.879Z,18.95
2022-08-28T02:32:46.255Z,18.87
2022-08-28T02:35:15.659Z,18.66
2022-08-28T02:37:44.248Z,18.67
2022-08-28T02:40:14.317Z,18.65
2022-08-28T02:42:42.015Z,18.64
2022-08-28T02:45:11.397Z,18.63
2022-08-28T02:47:39.926Z,18.54
2022-08-28T02:50:07.719Z,18.42
2022-08-28T02:52:37.746Z,18.58
2022-08-28T02:55:06.488Z,18.46
2022-08-28T02:57:33.026Z,18.45
2022-08-28T02:59:59.831Z,18.52
2022-08-28T03:02:26.392Z,18.48
2022-08-28T03:04:53.455Z,18.49
2022-08-28T03:07:22.028Z,18.46
2022-08-28T03:09:49.782Z,18.46
2022-08-28T03:12:17.096Z,18.41
2022-08-28T03:14:43.819Z,18.48
2022-08-28T03:17:10.274Z,18.35
2022-08-28T03:19:36.772Z,18.48
2022-08-28T03:22:03.322Z,18.54
2022-08-28T03:24:29.758Z,18.46
2022-08-28T03:26:56.222Z,18.38
2022-08-28T03:29:23.073Z,18.18
2022-08-28T03:31:49.492Z,18.19
2022-08-28T03:34:15.999Z,18.16
2022-08-28T03:36:42.430Z,18.16
2022-08-28T03:39:08.862Z,18.23
2022-08-28T03:41:35.296Z,18.27
2022-08-28T03:44:02.623Z,18.32
2022-08-28T03:46:32.911Z,18.09
2022-08-28T03:49:01.384Z,18.19
2022-08-28T03:51:30.569Z,18.21
2022-08-28T03:54:01.678Z,18.10
2022-08-28T03:56:29.451Z,18.13
2022-08-28T03:58:58.727Z,18.14
2022-08-28T04:01:25.707Z,18.11
2022-08-28T04:03:52.569Z,18.16
2022-08-28T04:06:20.075Z,18.11
2022-08-28T04:08:47.507Z,18.06
2022-08-28T04:11:13.936Z,17.85
2022-08-28T04:13:41.675Z,17.99
2022-08-28T04:16:11.251Z,17.96
2022-08-28T04:18:42.418Z,17.99
2022-08-28T04:21:18.209Z,17.91
2022-08-28T04:23:45.883Z,17.85
2022-08-28T04:26:15.703Z,17.93
2022-08-28T04:28:42.305Z,17.92
2022-08-28T04:31:08.901Z,18.19
2022-08-28T04:33:36.316Z,18.13
2022-08-28T04:36:11.635Z,17.89
2022-08-28T04:38:43.551Z,17.85
2022-08-28T04:41:12.788Z,17.79
2022-08-28T04:43:39.758Z,17.72
2022-08-28T04:46:08.421Z,17.74
2022-08-28T04:48:35.682Z,17.60
2022-08-28T04:51:05.640Z,17.55
2022-08-28T04:53:32.945Z,17.35
2022-08-28T04:56:00.597Z,17.38
2022-08-28T04:58:27.203Z,17.27
2022-08-28T05:00:54.331Z,17.11
2022-08-28T05:03:21.107Z,17.14
2022-08-28T05:05:54.382Z,17.11
2022-08-28T05:08:23.854Z,16.95
2022-08-28T05:10:50.935Z,17.13
2022-08-28T05:13:18.451Z,17.14
2022-08-28T05:15:48.267Z,17.08
2022-08-28T05:18:16.996Z,17.09
2022-08-28T05:20:45.686Z,17.02
2022-08-28T05:23:14.443Z,16.91
2022-08-28T05:25:45.848Z,16.89
2022-08-28T05:28:13.611Z,16.85
2022-08-28T05:30:41.899Z,16.85
2022-08-28T05:33:10.527Z,16.66
2022-08-28T05:35:39.042Z,16.74
2022-08-28T05:38:06.444Z,16.59
2022-08-28T05:40:33.680Z,16.69
2022-08-28T05:43:00.435Z,16.71
2022-08-28T05:45:26.884Z,16.77
2022-08-28T05:47:54.012Z,16.80
2022-08-28T05:50:20.471Z,16.83
2022-08-28T05:52:47.447Z,16.77
2022-08-28T05:55:14.070Z,16.77
2022-08-28T05:57:41.067Z,16.82
2022-08-28T06:00:12.683Z,16.86
2022-08-28T06:02:40.484Z,16.90
2022-08-28T06:05:07.218Z,16.92
2022-08-28T06:07:34.010Z,16.89
2022-08-28T06:10:00.851Z,16.99
2022-08-28T06:12:27.263Z,17.04
2022-08-28T06:14:54.213Z,16.97
2022-08-28T06:17:23.765Z,17.02
2022-08-28T06:19:50.448Z,17.02
2022-08-28T06:22:17.099Z,17.03
2022-08-28T06:24:43.809Z,16.95
2022-08-28T06:27:10.343Z,17.09
2022-08-28T06:29:36.784Z,17.19
2022-08-28T06:32:06.828Z,17.14
2022-08-28T06:34:33.754Z,17.22
2022-08-28T06:37:00.678Z,17.11
2022-08-28T06:39:27.122Z,17.22
2022-08-28T06:41:53.715Z,17.23
2022-08-28T06:44:21.562Z,17.22
2022-08-28T06:46:50.503Z,17.27
2022-08-28T06:49:17.003Z,17.20
2022-08-28T06:51:43.734Z,17.28
2022-08-28T06:54:10.320Z,17.21
2022-08-28T06:56:36.947Z,17.01
2022-08-28T06:59:04.053Z,17.05
2022-08-28T07:01:34.328Z,17.12
2022-08-28T07:04:04.046Z,17.09
2022-08-28T07:06:34.040Z,17.12
2022-08-28T07:09:00.819Z,17.11
2022-08-28T07:11:30.238Z,17.17
2022-08-28T07:13:57.865Z,17.13
2022-08-28T07:16:30.346Z,17.24
2022-08-28T07:18:57.683Z,17.30
2022-08-28T07:21:24.249Z,17.16
2022-08-28T07:23:50.744Z,17.13
2022-08-28T07:26:20.367Z,17.24
2022-08-28T07:28:47.276Z,17.24
2022-08-28T07:31:16.697Z,17.29
2022-08-28T07:33:44.313Z,17.21
2022-08-28T07:36:19.083Z,17.15
2022-08-28T07:38:59.230Z,17.03
2022-08-28T07:41:29.061Z,17.05
2022-08-28T07:44:14.341Z,17.11
2022-08-28T07:46:41.855Z,17.10
2022-08-28T07:49:08.932Z,17.16
2022-08-28T07:51:36.126Z,16.99
2022-08-28T07:54:04.046Z,17.08
2022-08-28T07:56:31.463Z,17.35
2022-08-28T07:59:00.131Z,17.23
2022-08-28T08:01:28.893Z,17.15
2022-08-28T08:04:01.314Z,17.22
2022-08-28T08:06:33.072Z,17.08
2022-08-28T08:09:01.977Z,17.10
2022-08-28T08:11:32.220Z,17.20
2022-08-28T08:14:05.478Z,17.24
2022-08-28T08:16:39.060Z,17.25
2022-08-28T08:19:05.999Z,17.29
2022-08-28T08:21:32.699Z,17.40
2022-08-28T08:23:59.243Z,17.41
2022-08-28T08:26:28.184Z,17.55
2022-08-28T08:28:56.128Z,17.58
2022-08-28T08:31:26.638Z,17.68
2022-08-28T08:33:56.609Z,17.72
2022-08-28T08:36:25.087Z,17.46
2022-08-28T08:38:59.449Z,17.57
2022-08-28T08:41:34.395Z,17.44
2022-08-28T08:44:17.035Z,17.53
2022-08-28T08:46:56.158Z,17.53
2022-08-28T08:49:29.478Z,17.69
2022-08-28T08:51:58.855Z,17.84
2022-08-28T08:54:25.386Z,17.88
2022-08-28T08:56:55.920Z,18.01
2022-08-28T08:59:26.053Z,17.96
2022-08-28T09:02:12.188Z,17.84
2022-08-28T09:04:47.693Z,18.04
2022-08-28T09:07:21.432Z,17.96
2022-08-28T09:09:53.168Z,17.79
2022-08-28T09:12:26.044Z,17.75
2022-08-28T09:15:23.342Z,17.53
2022-08-28T09:17:55.267Z,17.83
2022-08-28T09:20:32.504Z,17.97
2022-08-28T09:23:00.075Z,17.95
2022-08-28T09:25:44.805Z,17.85
2022-08-28T09:28:15.784Z,17.95
2022-08-28T09:30:44.019Z,17.86
2022-08-28T09:33:10.447Z,17.90
2022-08-28T09:35:37.703Z,18.09
2022-08-28T09:38:19.190Z,18.06
2022-08-28T09:41:04.048Z,18.03
2022-08-28T09:43:31.497Z,18.10
2022-08-28T09:46:04.258Z,18.10
2022-08-28T09:48:37.970Z,18.17
2022-08-28T09:51:29.351Z,17.90
2022-08-28T09:54:36.123Z,17.75
2022-08-28T09:57:03.590Z,17.89
2022-08-28T09:59:30.838Z,18.07
2022-08-28T10:02:14.942Z,17.97
2022-08-28T10:05:01.035Z,18.07
2022-08-28T10:07:39.986Z,18.19
2022-08-28T10:10:20.849Z,18.23
2022-08-28T10:13:19.280Z,18.35
2022-08-28T10:16:01.696Z,18.24
2022-08-28T10:18:44.045Z,18.25
2022-08-28T10:21:18.012Z,18.25
2022-08-28T10:24:23.329Z,18.35
2022-08-28T10:27:15.357Z,18.12
2022-08-28T10:29:50.541Z,18.20
2022-08-28T10:32:54.715Z,18.18
2022-08-28T10:35:55.778Z,18.18
2022-08-28T10:38:36.431Z,18.01
2022-08-28T10:41:10.023Z,18.16
2022-08-28T10:43:44.003Z,18.20
2022-08-28T10:46:15.009Z,18.22
2022-08-28T10:48:47.580Z,18.17
2022-08-28T10:51:34.757Z,18.18
2022-08-28T10:54:18.883Z,18.29
2022-08-28T10:56:57.322Z,18.30
2022-08-28T10:59:27.453Z,18.32
2022-08-28T11:01:53.942Z,18.10
2022-08-28T11:04:25.715Z,18.09
2022-08-28T11:07:00.662Z,18.31
2022-08-28T11:09:31.619Z,18.44
2022-08-28T11:12:02.170Z,18.44
2022-08-28T11:14:34.215Z,18.31
2022-08-28T11:17:14.418Z,18.36
2022-08-28T11:19:58.862Z,18.21
2022-08-28T11:22:49.834Z,18.40
2022-08-28T11:25:32.775Z,18.33
2022-08-28T11:28:23.856Z,18.56
2022-08-28T11:31:05.419Z,18.47
2022-08-28T11:33:52.515Z,18.58
2022-08-28T11:36:21.697Z,18.62
2022-08-28T11:39:00.986Z,18.65
2022-08-28T11:41:29.080Z,18.59
2022-08-28T11:44:13.902Z,18.69
2022-08-28T11:46:49.124Z,18.83
2022-08-28T11:49:26.111Z,18.88
2022-08-28T11:51:55.291Z,18.77
2022-08-28T11:54:46.756Z,18.78
2022-08-28T11:57:23.936Z,18.75
2022-08-28T12:00:21.624Z,18.81
2022-08-28T12:02:53.179Z,18.94
2022-08-28T12:05:40.051Z,18.89
2022-08-28T12:08:06.860Z,19.10
2022-08-28T12:10:33.235Z,19.21
2022-08-28T12:13:05.018Z,19.32
2022-08-28T12:15:31.448Z,19.33
2022-08-28T12:18:05.590Z,19.13
2022-08-28T12:20:58.606Z,19.35
2022-08-28T12:23:42.313Z,19.51
2022-08-28T12:26:21.096Z,19.63
2022-08-28T12:29:21.689Z,19.79
2022-08-28T12:32:20.853Z,19.77
2022-08-28T12:34:51.265Z,19.82
2022-08-28T12:37:51.006Z,19.87
2022-08-28T12:40:29.749Z,20.14
2022-08-28T12:43:00.449Z,20.38
2022-08-28T12:45:38.389Z,20.31
2022-08-28T12:48:16.508Z,20.25
2022-08-28T12:50:43.382Z,20.05
2022-08-28T12:53:16.975Z,20.21
2022-08-28T12:55:45.950Z,20.20
2022-08-28T12:58:27.850Z,20.28
2022-08-28T13:00:59.501Z,20.60
2022-08-28T13:03:26.245Z,20.71
2022-08-28T13:06:03.062Z,20.95
2022-08-28T13:08:29.697Z,21.07
2022-08-28T13:10:56.322Z,21.40
2022-08-28T13:13:32.540Z,21.24
2022-08-28T13:16:06.583Z,21.31
2022-08-28T13:19:09.555Z,21.33
2022-08-28T13:21:48.039Z,21.50
2022-08-28T13:24:27.577Z,21.57
2022-08-28T13:27:07.385Z,21.60
2022-08-28T13:29:35.346Z,21.83
2022-08-28T13:32:15.973Z,21.68
2022-08-28T13:34:46.070Z,21.90
2022-08-28T13:37:40.178Z,22.19
2022-08-28T13:40:16.013Z,22.12
2022-08-28T13:42:57.427Z,22.09
2022-08-28T13:45:24.048Z,22.04
2022-08-28T13:47:50.473Z,22.22
2022-08-28T13:50:16.886Z,22.30
2022-08-28T13:52:43.331Z,22.26
2022-08-28T13:55:12.279Z,22.56
2022-08-28T13:57:39.618Z,22.86
2022-08-28T14:00:06.696Z,22.97
2022-08-28T14:02:52.705Z,23.18
2022-08-28T14:05:19.726Z,23.30
2022-08-28T14:07:46.331Z,23.04
2022-08-28T14:10:13.058Z,23.01
2022-08-28T14:12:41.450Z,22.89
2022-08-28T14:15:07.978Z,22.94
2022-08-28T14:17:34.511Z,22.94
2022-08-28T14:20:01.620Z,22.97
2022-08-28T14:22:28.601Z,23.07
2022-08-28T14:24:55.051Z,23.25
2022-08-28T14:27:21.477Z,23.38
2022-08-28T14:29:49.047Z,23.67
2022-08-28T14:32:16.021Z,23.63
2022-08-28T14:34:43.543Z,23.63
2022-08-28T14:37:09.992Z,23.74
2022-08-28T14:39:36.428Z,24.04
2022-08-28T14:42:05.630Z,24.17
2022-08-28T14:44:39.620Z,24.23
2022-08-28T14:47:06.059Z,24.18
2022-08-28T14:49:32.494Z,24.19
2022-08-28T14:51:58.947Z,24.32
2022-08-28T14:54:26.271Z,24.30
2022-08-28T14:56:54.511Z,24.34
2022-08-28T14:59:25.094Z,24.39
2022-08-28T15:01:53.027Z,24.40
2022-08-28T15:04:24.756Z,24.47
2022-08-28T15:06:56.771Z,24.58
2022-08-28T15:09:23.231Z,24.56
2022-08-28T15:11:49.668Z,24.41
2022-08-28T15:14:16.115Z,24.23
2022-08-28T15:16:46.745Z,24.26
2022-08-28T15:19:15.932Z,24.03
2022-08-28T15:21:46.406Z,24.31
2022-08-28T15:24:28.693Z,24.29
2022-08-28T15:26:55.218Z,24.23
2022-08-28T15:29:21.629Z,24.28
2022-08-28T15:31:50.484Z,24.33
2022-08-28T15:34:22.958Z,24.32
2022-08-28T15:36:54.577Z,24.44
2022-08-28T15:39:40.355Z,24.37
2022-08-28T15:42:07.789Z,24.43
2022-08-28T15:44:34.496Z,24.18
2022-08-28T15:47:02.414Z,24.17
2022-08-28T15:49:32.219Z,24.02
2022-08-28T15:52:02.916Z,23.96
2022-08-28T15:54:31.809Z,24.08
2022-08-28T15:56:58.911Z,24.07
2022-08-28T15:59:25.643Z,23.98
2022-08-28T16:02:12.665Z,23.97
2022-08-28T16:04:39.175Z,24.14
2022-08-28T16:07:05.615Z,23.92
2022-08-28T16:09:32.023Z,23.91
2022-08-28T16:11:58.643Z,23.68
2022-08-28T16:14:25.083Z,23.87
2022-08-28T16:16:51.558Z,23.79
2022-08-28T16:19:19.487Z,23.60
2022-08-28T16:21:46.243Z,23.68
2022-08-28T16:24:12.654Z,23.65
2022-08-28T16:26:39.501Z,23.58
2022-08-28T16:29:06.019Z,23.52
2022-08-28T16:31:34.320Z,23.53
2022-08-28T16:34:02.830Z,23.53
2022-08-28T16:36:30.077Z,23.33
2022-08-28T16:39:03.868Z,23.41
2022-08-28T16:41:31.987Z,23.50
2022-08-28T16:43:58.867Z,23.50
2022-08-28T16:46:26.804Z,23.49
2022-08-28T16:48:54.475Z,23.44
2022-08-28T16:51:21.490Z,23.29
2022-08-28T16:53:48.313Z,23.24
2022-08-28T16:56:17.115Z,23.28
2022-08-28T16:58:44.063Z,23.16
2022-08-28T17:01:11.971Z,23.12
2022-08-28T17:03:39.826Z,23.05
2022-08-28T17:06:26.697Z,23.09
2022-08-28T17:08:56.941Z,23.06
2022-08-28T17:11:24.905Z,22.80
2022-08-28T17:13:51.311Z,22.90
2022-08-28T17:16:18.793Z,22.92
2022-08-28T17:18:48.219Z,22.81
2022-08-28T17:21:37.448Z,22.83
2022-08-28T17:24:04.229Z,22.70
2022-08-28T17:26:30.665Z,22.66
2022-08-28T17:28:57.094Z,22.53
2022-08-28T17:31:23.757Z,22.55
2022-08-28T17:33:50.482Z,22.52
2022-08-28T17:36:32.531Z,22.37
2022-08-28T17:39:01.543Z,22.37
2022-08-28T17:41:27.983Z,22.26
2022-08-28T17:43:54.444Z,22.11
2022-08-28T17:46:21.014Z,22.06
2022-08-28T17:48:54.270Z,21.92
2022-08-28T17:51:42.976Z,21.87
2022-08-28T17:54:15.358Z,21.66
2022-08-28T17:56:42.310Z,21.52
2022-08-28T17:59:10.031Z,21.52
2022-08-28T18:01:36.519Z,21.50
2022-08-28T18:04:03.271Z,21.32
2022-08-28T18:06:29.716Z,21.03
2022-08-28T18:08:56.355Z,21.05
2022-08-28T18:11:23.577Z,21.03
2022-08-28T18:13:50.400Z,20.87
2022-08-28T18:16:17.786Z,20.87
2022-08-28T18:18:44.250Z,20.75
2022-08-28T18:21:11.604Z,20.66
2022-08-28T18:23:39.634Z,20.52
2022-08-28T18:26:06.937Z,20.51
2022-08-28T18:28:33.465Z,20.39
2022-08-28T18:31:00.856Z,20.43
2022-08-28T18:33:27.478Z,20.36
2022-08-28T18:35:54.132Z,20.20
2022-08-28T18:38:23.149Z,20.23
2022-08-28T18:40:49.820Z,20.05
2022-08-28T18:43:20.090Z,20.03
2022-08-28T18:45:46.988Z,20.05
2022-08-28T18:48:13.994Z,19.96
2022-08-28T18:50:45.705Z,19.88
2022-08-28T18:53:13.716Z,19.77
2022-08-28T18:55:40.152Z,19.81
2022-08-28T18:58:06.948Z,19.71
2022-08-28T19:00:33.737Z,19.69
2022-08-28T19:03:00.387Z,19.58
2022-08-28T19:05:27.198Z,19.56
2022-08-28T19:07:53.839Z,19.45
2022-08-28T19:10:32.609Z,19.40
2022-08-28T19:13:01.040Z,19.40
2022-08-28T19:15:28.259Z,19.32
2022-08-28T19:17:55.166Z,19.27
2022-08-28T19:20:22.099Z,19.31
2022-08-28T19:22:48.800Z,19.21
2022-08-28T19:25:27.587Z,19.20
2022-08-28T19:27:56.333Z,19.10
2022-08-28T19:30:27.110Z,19.10
2022-08-28T19:32:53.557Z,19.09
2022-08-28T19:35:20.618Z,18.97
2022-08-28T19:37:50.888Z,18.84
2022-08-28T19:40:19.181Z,18.85
2022-08-28T19:42:45.913Z,18.92
2022-08-28T19:45:14.853Z,18.74
2022-08-28T19:47:41.531Z,18.79
2022-08-28T19:50:10.917Z,18.75
2022-08-28T19:52:37.994Z,18.59
2022-08-28T19:55:06.026Z,18.52
2022-08-28T19:57:33.630Z,18.60
2022-08-28T20:00:00.084Z,18.51
2022-08-28T20:02:28.430Z,18.39
2022-08-28T20:04:55.333Z,18.28
2022-08-28T20:07:22.013Z,18.38
2022-08-28T20:09:48.434Z,18.14
2022-08-28T20:12:15.134Z,18.13
2022-08-28T20:14:42.693Z,18.14
2022-08-28T20:17:09.762Z,18.24
2022-08-28T20:19:36.499Z,18.03
2022-08-28T20:22:03.959Z,17.92
2022-08-28T20:24:30.874Z,17.77
2022-08-28T20:26:57.664Z,17.70
2022-08-28T20:29:25.152Z,17.74
2022-08-28T20:31:54.604Z,17.61
2022-08-28T20:34:22.013Z,17.69
2022-08-28T20:36:49.142Z,17.70
2022-08-28T20:39:16.371Z,17.69
2022-08-28T20:41:44.486Z,17.69
2022-08-28T20:44:12.980Z,17.64
2022-08-28T20:46:42.502Z,17.55
2022-08-28T20:49:13.988Z,17.48
2022-08-28T20:51:56.250Z,17.43
2022-08-28T20:54:32.628Z,17.36
2022-08-28T20:57:02.457Z,17.24
2022-08-28T20:59:39.319Z,17.20
2022-08-28T21:02:09.366Z,17.11
2022-08-28T21:04:37.453Z,17.04
2022-08-28T21:07:05.887Z,17.02
2022-08-28T21:09:40.968Z,17.01
2022-08-28T21:12:19.186Z,16.88
2022-08-28T21:14:51.454Z,16.80
2022-08-28T21:17:28.784Z,16.78
2022-08-28T21:19:57.986Z,16.72
2022-08-28T21:22:24.470Z,16.73
2022-08-28T21:24:50.884Z,16.69
2022-08-28T21:27:18.561Z,16.62
2022-08-28T21:29:45.849Z,16.57
2022-08-28T21:32:12.960Z,16.55
2022-08-28T21:34:39.477Z,16.54
2022-08-28T21:37:06.355Z,16.45
2022-08-28T21:39:32.818Z,16.37
2022-08-28T21:41:59.242Z,16.27
2022-08-28T21:44:25.677Z,16.27
2022-08-28T21:46:52.182Z,16.20
2022-08-28T21:49:18.657Z,16.12
2022-08-28T21:51:45.079Z,16.11
2022-08-28T21:54:11.504Z,16.02
2022-08-28T21:56:37.967Z,16.01
2022-08-28T21:59:04.439Z,15.95
2022-08-28T22:01:31.023Z,15.90
2022-08-28T22:03:57.513Z,15.90
2022-08-28T22:06:26.265Z,15.88
2022-08-28T22:08:53.650Z,15.82
2022-08-28T22:11:25.055Z,15.81
2022-08-28T22:13:52.258Z,15.80
2022-08-28T22:16:19.590Z,15.83
2022-08-28T22:18:46.471Z,15.83
2022-08-28T22:21:34.254Z,15.80
2022-08-28T22:24:01.206Z,15.80
2022-08-28T22:26:27.809Z,15.80
2022-08-28T22:28:54.730Z,15.87
2022-08-28T22:31:21.293Z,15.79
2022-08-28T22:33:47.786Z,15.80
2022-08-28T22:36:14.346Z,15.70
2022-08-28T22:38:41.284Z,15.61
2022-08-28T22:41:16.193Z,15.61
2022-08-28T22:43:42.625Z,15.61
2022-08-28T22:46:09.738Z,15.57
2022-08-28T22:48:36.266Z,15.54
2022-08-28T22:51:08.210Z,15.49
2022-08-28T22:53:35.877Z,15.45
2022-08-28T22:56:02.510Z,15.43
2022-08-28T22:58:31.534Z,15.41
2022-08-28T23:01:00.854Z,15.33
2022-08-28T23:03:27.622Z,15.35
2022-08-28T23:05:54.173Z,15.44
2022-08-28T23:08:20.908Z,15.48
2022-08-28T23:10:59.070Z,15.45
2022-08-28T23:13:25.910Z,15.46
2022-08-28T23:15:52.367Z,15.49
2022-08-28T23:18:18.795Z,15.48
2022-08-28T23:20:45.239Z,15.35
2022-08-28T23:23:11.990Z,15.32
2022-08-28T23:25:38.537Z,15.27
2022-08-28T23:28:06.619Z,15.31
2022-08-28T23:30:33.722Z,15.32
2022-08-28T23:33:00.170Z,15.28
2022-08-28T23:35:26.612Z,15.29
2022-08-28T23:37:53.277Z,15.29
2022-08-28T23:40:21.941Z,15.27
2022-08-28T23:42:48.821Z,15.25
2022-08-28T23:45:16.778Z,15.21
2022-08-28T23:47:43.818Z,15.18
2022-08-28T23:50:17.704Z,15.14
2022-08-28T23:52:44.373Z,15.19
2022-08-28T23:55:11.978Z,15.17
2022-08-28T23:57:38.642Z,15.22
